createdAt,value
2019-05-28T00:00:09.641Z,100532.10
2019-05-28T00:02:38.881Z,100528.17
2019-05-28T00:05:08.327Z,100529.41
2019-05-28T00:07:37.574Z,100524.97
2019-05-28T00:10:08.535Z,100517.73
2019-05-28T00:12:37.723Z,100511.95
2019-05-28T00:15:08.233Z,100506.31
2019-05-28T00:17:38.384Z,100503.11
2019-05-28T00:20:08.403Z,100504.58
2019-05-28T00:22:37.580Z,100500.52
2019-05-28T00:25:07.155Z,100496.97
2019-05-28T00:27:36.291Z,100495.50
2019-05-28T00:30:19.032Z,100499.17
2019-05-28T00:32:38.191Z,100492.30
2019-05-28T00:35:07.806Z,100493.66
2019-05-28T00:37:36.976Z,100492.53
2019-05-28T00:40:06.491Z,100498.94
2019-05-28T00:42:35.699Z,100487.98
2019-05-28T00:45:07.031Z,100494.27
2019-05-28T00:47:36.211Z,100491.69
2019-05-28T00:50:09.774Z,100483.58
2019-05-28T00:52:39.032Z,100486.00
2019-05-28T00:55:09.972Z,100483.58
2019-05-28T00:57:42.217Z,100483.81
2019-05-28T01:00:11.830Z,100476.59
2019-05-28T01:02:41.393Z,100470.80
2019-05-28T01:05:11.030Z,100472.03
2019-05-28T01:07:40.239Z,100473.12
2019-05-28T01:10:10.324Z,100479.12
2019-05-28T01:12:39.519Z,100483.92
2019-05-28T01:15:09.251Z,100481.61
2019-05-28T01:17:38.600Z,100487.98
2019-05-28T01:20:08.546Z,100485.55
2019-05-28T01:22:37.714Z,100490.83
2019-05-28T01:25:07.734Z,100493.39
2019-05-28T01:27:36.911Z,100493.39
2019-05-28T01:30:07.548Z,100495.62
2019-05-28T01:32:36.730Z,100491.18
2019-05-28T01:35:09.191Z,100492.53
2019-05-28T01:37:38.369Z,100486.98
2019-05-28T01:40:07.792Z,100481.20
2019-05-28T01:42:36.985Z,100490.55
2019-05-28T01:45:07.505Z,100482.95
2019-05-28T01:47:37.080Z,100480.48
2019-05-28T01:50:08.043Z,100479.52
2019-05-28T01:52:37.290Z,100474.84
2019-05-28T01:55:09.987Z,100470.74
2019-05-28T01:57:39.168Z,100471.12
2019-05-28T02:00:09.294Z,100466.96
2019-05-28T02:02:38.480Z,100471.25
2019-05-28T02:05:08.862Z,100475.05
2019-05-28T02:07:38.055Z,100472.98
2019-05-28T02:10:07.772Z,100470.64
2019-05-28T02:12:37.049Z,100469.91
2019-05-28T02:15:08.370Z,100468.20
2019-05-28T02:17:37.598Z,100466.11
2019-05-28T02:20:09.283Z,100458.67
2019-05-28T02:22:38.671Z,100462.17
2019-05-28T02:25:09.314Z,100462.30
2019-05-28T02:27:38.551Z,100462.92
2019-05-28T02:30:13.585Z,100460.72
2019-05-28T02:32:42.762Z,100460.34
2019-05-28T02:35:12.678Z,100456.77
2019-05-28T02:37:41.853Z,100451.98
2019-05-28T02:40:12.065Z,100454.06
2019-05-28T02:42:41.256Z,100454.80
2019-05-28T02:45:11.392Z,100460.65
2019-05-28T02:47:40.565Z,100461.88
2019-05-28T02:50:11.098Z,100460.31
2019-05-28T02:52:40.767Z,100465.75
2019-05-28T02:55:10.907Z,100461.95
2019-05-28T02:57:42.804Z,100463.63
2019-05-28T03:00:17.181Z,100463.01
2019-05-28T03:02:49.194Z,100471.45
2019-05-28T03:05:18.612Z,100470.98
2019-05-28T03:07:48.329Z,100471.32
2019-05-28T03:11:00.340Z,100472.34
2019-05-28T03:13:06.347Z,100481.68
2019-05-28T03:15:38.615Z,100478.98
2019-05-28T03:18:12.353Z,100477.63
2019-05-28T03:20:42.936Z,100470.87
2019-05-28T03:23:13.159Z,100469.64
2019-05-28T03:25:42.576Z,100469.14
2019-05-28T03:28:11.942Z,100463.79
2019-05-28T03:30:42.212Z,100464.72
2019-05-28T03:33:11.459Z,100466.64
2019-05-28T03:35:42.613Z,100469.03
2019-05-28T03:38:12.529Z,100468.16
2019-05-28T03:40:46.087Z,100464.27
2019-05-28T03:43:15.674Z,100461.58
2019-05-28T03:45:45.204Z,100459.34
2019-05-28T03:48:14.645Z,100461.59
2019-05-28T03:50:43.826Z,100468.70
2019-05-28T03:53:13.039Z,100464.08
2019-05-28T03:55:42.213Z,100475.78
2019-05-28T03:58:11.393Z,100471.45
2019-05-28T04:00:40.643Z,100476.84
2019-05-28T04:03:11.097Z,100473.27
2019-05-28T04:05:40.289Z,100472.53
2019-05-28T04:08:09.572Z,100478.91
2019-05-28T04:10:38.812Z,100477.70
2019-05-28T04:13:07.983Z,100487.03
2019-05-28T04:15:37.096Z,100491.92
2019-05-28T04:18:06.296Z,100493.91
2019-05-28T04:20:35.505Z,100493.22
2019-05-28T04:23:07.640Z,100497.36
2019-05-28T04:25:36.822Z,100496.71
2019-05-28T04:28:06.062Z,100499.95
2019-05-28T04:30:35.252Z,100497.41
2019-05-28T04:33:04.428Z,100496.16
2019-05-28T04:35:33.601Z,100499.69
2019-05-28T04:38:04.653Z,100510.88
2019-05-28T04:40:33.909Z,100503.69
2019-05-28T04:43:03.186Z,100510.41
2019-05-28T04:45:32.399Z,100507.82
2019-05-28T04:48:01.593Z,100508.52
2019-05-28T04:50:30.702Z,100511.61
2019-05-28T04:52:59.873Z,100513.95
2019-05-28T04:55:29.112Z,100500.73
2019-05-28T04:57:58.222Z,100500.48
2019-05-28T05:00:27.451Z,100497.30
2019-05-28T05:02:59.929Z,100497.34
2019-05-28T05:05:27.570Z,100505.08
2019-05-28T05:07:56.796Z,100503.78
2019-05-28T05:10:26.357Z,100502.98
2019-05-28T05:12:55.562Z,100492.45
2019-05-28T05:15:24.834Z,100493.05
2019-05-28T05:17:54.030Z,100493.38
2019-05-28T05:20:23.234Z,100491.80
2019-05-28T05:22:52.416Z,100494.77
2019-05-28T05:25:21.926Z,100499.64
2019-05-28T05:27:51.140Z,100503.03
2019-05-28T05:30:20.327Z,100502.73
2019-05-28T05:32:49.580Z,100500.05
2019-05-28T05:35:19.406Z,100506.72
2019-05-28T05:37:48.590Z,100503.77
2019-05-28T05:40:18.318Z,100498.42
2019-05-28T05:42:47.651Z,100495.03
2019-05-28T05:45:17.272Z,100498.68
2019-05-28T05:47:46.656Z,100492.05
2019-05-28T05:50:16.067Z,100489.42
2019-05-28T05:52:45.315Z,100492.41
2019-05-28T05:55:14.769Z,100499.83
2019-05-28T05:57:43.942Z,100499.73
2019-05-28T06:00:14.885Z,100497.34
2019-05-28T06:02:44.049Z,100491.80
2019-05-28T06:05:13.418Z,100491.90
2019-05-28T06:07:42.663Z,100497.08
2019-05-28T06:10:12.071Z,100502.62
2019-05-28T06:12:41.284Z,100512.65
2019-05-28T06:15:10.937Z,100512.12
2019-05-28T06:17:40.153Z,100514.01
2019-05-28T06:20:10.687Z,100523.05
2019-05-28T06:22:40.186Z,100522.95
2019-05-28T06:25:09.614Z,100523.88
2019-05-28T06:27:39.079Z,100532.95
2019-05-28T06:30:08.900Z,100532.25
2019-05-28T06:32:38.706Z,100531.18
2019-05-28T06:35:08.298Z,100533.70
2019-05-28T06:37:37.483Z,100531.87
2019-05-28T06:40:08.803Z,100534.21
2019-05-28T06:42:39.714Z,100533.95
2019-05-28T06:45:09.251Z,100541.70
2019-05-28T06:47:38.411Z,100545.47
2019-05-28T06:50:10.215Z,100544.48
2019-05-28T06:52:39.559Z,100549.69
2019-05-28T06:55:09.364Z,100555.23
2019-05-28T06:57:38.510Z,100549.55
2019-05-28T07:00:08.713Z,100560.80
2019-05-28T07:02:37.887Z,100559.55
2019-05-28T07:05:07.301Z,100562.17
2019-05-28T07:07:36.491Z,100569.30
2019-05-28T07:10:06.728Z,100557.31
2019-05-28T07:12:35.906Z,100567.78
2019-05-28T07:15:06.944Z,100568.38
2019-05-28T07:17:36.130Z,100572.81
2019-05-28T07:20:09.275Z,100576.66
2019-05-28T07:22:38.463Z,100574.91
2019-05-28T07:25:08.064Z,100582.03
2019-05-28T07:27:37.277Z,100581.64
2019-05-28T07:30:08.532Z,100580.45
2019-05-28T07:32:37.713Z,100582.92
2019-05-28T07:35:07.377Z,100585.89
2019-05-28T07:37:36.603Z,100578.95
2019-05-28T07:40:07.849Z,100585.77
2019-05-28T07:42:54.493Z,100588.94
2019-05-28T07:45:23.756Z,100592.13
2019-05-28T07:47:52.974Z,100598.81
2019-05-28T07:50:22.211Z,100606.97
2019-05-28T07:52:51.397Z,100607.30
2019-05-28T07:55:20.570Z,100609.34
2019-05-28T07:57:49.766Z,100612.67
2019-05-28T08:00:22.023Z,100619.59
2019-05-28T08:02:51.203Z,100619.95
2019-05-28T08:05:20.389Z,100618.97
2019-05-28T08:07:49.574Z,100624.66
2019-05-28T08:10:18.995Z,100632.81
2019-05-28T08:12:48.247Z,100635.28
2019-05-28T08:15:17.509Z,100638.23
2019-05-28T08:17:46.710Z,100639.26
2019-05-28T08:20:18.483Z,100638.81
2019-05-28T08:22:46.839Z,100638.65
2019-05-28T08:25:33.402Z,100642.19
2019-05-28T08:27:46.910Z,100644.79
2019-05-28T08:30:34.097Z,100644.45
2019-05-28T08:33:03.330Z,100651.08
2019-05-28T08:35:32.576Z,100648.22
2019-05-28T08:38:01.777Z,100651.48
2019-05-28T08:40:31.004Z,100653.95
2019-05-28T08:43:00.219Z,100660.34
2019-05-28T08:45:29.383Z,100662.25
2019-05-28T08:47:58.572Z,100665.89
2019-05-28T08:50:34.241Z,100666.20
2019-05-28T08:52:58.902Z,100668.30
2019-05-28T08:55:28.176Z,100665.72
2019-05-28T08:57:57.359Z,100671.86
2019-05-28T09:00:44.060Z,100668.76
2019-05-28T09:03:13.534Z,100673.48
2019-05-28T09:05:42.780Z,100680.52
2019-05-28T09:08:11.959Z,100684.31
2019-05-28T09:10:41.145Z,100685.80
2019-05-28T09:13:10.363Z,100683.57
2019-05-28T09:15:39.538Z,100689.42
2019-05-28T09:18:08.757Z,100687.13
2019-05-28T09:20:38.284Z,100689.33
2019-05-28T09:23:07.516Z,100689.52
2019-05-28T09:25:36.720Z,100701.04
2019-05-28T09:28:05.890Z,100695.08
2019-05-28T09:30:35.070Z,100703.95
2019-05-28T09:33:04.330Z,100698.27
2019-05-28T09:35:44.279Z,100704.73
2019-05-28T09:38:04.588Z,100714.05
2019-05-28T09:40:49.106Z,100715.30
2019-05-28T09:43:04.717Z,100714.50
2019-05-28T09:45:33.964Z,100719.70
2019-05-28T09:48:03.152Z,100724.59
2019-05-28T09:50:32.351Z,100725.48
2019-05-28T09:53:01.544Z,100729.78
2019-05-28T09:55:30.784Z,100741.22
2019-05-28T09:57:59.958Z,100738.25
2019-05-28T10:00:30.048Z,100742.38
2019-05-28T10:02:59.241Z,100743.55
2019-05-28T10:05:28.453Z,100750.05
2019-05-28T10:07:57.744Z,100756.69
2019-05-28T10:10:26.952Z,100757.94
2019-05-28T10:12:56.157Z,100758.12
2019-05-28T10:15:25.324Z,100758.30
2019-05-28T10:17:54.567Z,100761.88
2019-05-28T10:20:24.426Z,100767.35
2019-05-28T10:22:53.560Z,100768.30
2019-05-28T10:25:23.078Z,100772.16
2019-05-28T10:28:01.106Z,100775.50
2019-05-28T10:30:24.579Z,100781.16
2019-05-28T10:32:53.843Z,100784.61
2019-05-28T10:35:23.655Z,100791.25
2019-05-28T10:37:52.823Z,100795.69
2019-05-28T10:40:22.382Z,100797.89
2019-05-28T10:42:51.544Z,100797.81
2019-05-28T10:45:21.388Z,100799.73
2019-05-28T10:47:50.567Z,100793.50
2019-05-28T10:50:20.582Z,100810.77
2019-05-28T10:52:49.994Z,100810.28
2019-05-28T10:55:19.295Z,100817.00
2019-05-28T10:57:48.607Z,100818.57
2019-05-28T11:00:18.542Z,100821.44
2019-05-28T11:02:47.710Z,100825.38
2019-05-28T11:05:17.734Z,100834.58
2019-05-28T11:07:46.944Z,100833.33
2019-05-28T11:10:24.353Z,100835.16
2019-05-28T11:12:48.670Z,100834.80
2019-05-28T11:15:18.692Z,100831.70
2019-05-28T11:17:47.897Z,100833.63
2019-05-28T11:20:17.804Z,100839.78
2019-05-28T11:22:47.051Z,100839.97
2019-05-28T11:25:18.085Z,100848.44
2019-05-28T11:27:47.262Z,100847.84
2019-05-28T11:30:17.268Z,100851.96
2019-05-28T11:32:46.762Z,100858.02
2019-05-28T11:35:17.610Z,100856.09
2019-05-28T11:37:46.854Z,100852.06
2019-05-28T11:40:17.867Z,100856.92
2019-05-28T11:42:47.127Z,100859.12
2019-05-28T11:45:17.884Z,100867.77
2019-05-28T11:47:50.599Z,100872.48
2019-05-28T11:50:18.956Z,100875.27
2019-05-28T11:52:48.402Z,100882.75
2019-05-28T11:55:18.363Z,100876.77
2019-05-28T11:57:47.577Z,100881.58
2019-05-28T12:00:17.778Z,100876.43
2019-05-28T12:02:47.178Z,100875.91
2019-05-28T12:05:16.796Z,100882.88
2019-05-28T12:07:45.968Z,100885.74
2019-05-28T12:10:15.531Z,100885.94
2019-05-28T12:12:44.715Z,100885.52
2019-05-28T12:15:18.423Z,100885.08
2019-05-28T12:17:47.632Z,100890.87
2019-05-28T12:20:19.722Z,100900.31
2019-05-28T12:22:48.911Z,100904.09
2019-05-28T12:25:19.941Z,100912.45
2019-05-28T12:27:49.186Z,100916.98
2019-05-28T12:30:19.230Z,100913.11
2019-05-28T12:32:48.413Z,100918.41
2019-05-28T12:35:28.410Z,100919.42
2019-05-28T12:37:50.737Z,100925.25
2019-05-28T12:40:20.952Z,100916.83
2019-05-28T12:42:50.132Z,100925.08
2019-05-28T12:45:34.279Z,100924.27
2019-05-28T12:48:12.132Z,100924.22
2019-05-28T12:50:24.125Z,100927.31
2019-05-28T12:52:53.302Z,100929.81
2019-05-28T12:55:23.118Z,100932.37
2019-05-28T12:57:52.320Z,100933.79
2019-05-28T13:00:22.297Z,100936.29
2019-05-28T13:02:51.506Z,100939.54
2019-05-28T13:05:23.905Z,100944.55
2019-05-28T13:08:07.603Z,100946.66
2019-05-28T13:10:24.952Z,100948.55
2019-05-28T13:12:54.148Z,100956.81
2019-05-28T13:15:23.587Z,100956.25
2019-05-28T13:17:52.946Z,100962.84
2019-05-28T13:20:22.174Z,100960.42
2019-05-28T13:22:51.344Z,100968.72
2019-05-28T13:25:20.793Z,100969.77
2019-05-28T13:27:49.969Z,100973.29
2019-05-28T13:30:19.509Z,100985.17
2019-05-28T13:32:48.848Z,100981.28
2019-05-28T13:35:19.974Z,100988.27
2019-05-28T13:37:49.101Z,100989.87
2019-05-28T13:40:21.314Z,100984.80
2019-05-28T13:42:50.803Z,100985.70
2019-05-28T13:45:20.344Z,100983.36
2019-05-28T13:47:49.516Z,100990.93
2019-05-28T13:50:19.259Z,100992.14
2019-05-28T13:52:48.425Z,101002.78
2019-05-28T13:55:17.960Z,101005.38
2019-05-28T13:57:47.146Z,100999.02
2019-05-28T14:00:18.929Z,101002.42
2019-05-28T14:02:48.082Z,101005.67
2019-05-28T14:05:18.397Z,101011.44
2019-05-28T14:07:47.630Z,101012.98
2019-05-28T14:10:17.425Z,101019.83
2019-05-28T14:12:46.713Z,101018.80
2019-05-28T14:15:16.597Z,101019.84
2019-05-28T14:17:45.805Z,101022.31
2019-05-28T14:20:15.970Z,101029.70
2019-05-28T14:22:45.222Z,101024.38
2019-05-28T14:25:14.790Z,101030.89
2019-05-28T14:27:44.034Z,101031.22
2019-05-28T14:30:16.317Z,101038.66
2019-05-28T14:32:45.554Z,101043.66
2019-05-28T14:35:15.036Z,101044.62
2019-05-28T14:37:44.392Z,101054.16
2019-05-28T14:40:15.024Z,101060.08
2019-05-28T14:42:44.323Z,101058.14
2019-05-28T14:45:16.011Z,101066.77
2019-05-28T14:47:45.182Z,101065.28
2019-05-28T14:50:16.439Z,101064.13
2019-05-28T14:52:45.532Z,101072.99
2019-05-28T14:55:16.158Z,101078.39
2019-05-28T14:57:45.355Z,101077.26
2019-05-28T15:00:17.538Z,101080.56
2019-05-28T15:02:46.718Z,101082.79
2019-05-28T15:05:16.092Z,101075.58
2019-05-28T15:07:45.257Z,101080.88
2019-05-28T15:10:16.480Z,101083.64
2019-05-28T15:12:45.824Z,101091.73
2019-05-28T15:15:33.960Z,101091.67
2019-05-28T15:17:47.959Z,101095.01
2019-05-28T15:20:17.767Z,101092.22
2019-05-28T15:22:46.970Z,101103.42
2019-05-28T15:25:17.493Z,101102.93
2019-05-28T15:27:47.042Z,101108.55
2019-05-28T15:30:16.776Z,101109.99
2019-05-28T15:32:45.980Z,101112.78
2019-05-28T15:35:15.534Z,101116.64
2019-05-28T15:37:44.719Z,101122.48
2019-05-28T15:40:14.237Z,101122.58
2019-05-28T15:42:43.412Z,101126.42
2019-05-28T15:45:13.670Z,101118.14
2019-05-28T15:47:44.877Z,101133.14
2019-05-28T15:50:14.525Z,101137.61
2019-05-28T15:52:43.701Z,101129.59
2019-05-28T15:55:13.264Z,101126.45
2019-05-28T15:57:42.513Z,101140.95
2019-05-28T16:00:24.057Z,101148.86
2019-05-28T16:02:53.467Z,101161.64
2019-05-28T16:05:22.661Z,101157.19
2019-05-28T16:07:54.860Z,101146.59
2019-05-28T16:10:24.038Z,101156.14
2019-05-28T16:12:53.249Z,101163.74
2019-05-28T16:15:22.568Z,101166.47
2019-05-28T16:17:51.801Z,101173.63
2019-05-28T16:20:21.098Z,101175.84
2019-05-28T16:22:50.282Z,101173.05
2019-05-28T16:25:19.527Z,101178.42
2019-05-28T16:27:48.793Z,101178.93
2019-05-28T16:30:18.597Z,101172.84
2019-05-28T16:32:47.794Z,101179.98
2019-05-28T16:35:21.282Z,101199.03
2019-05-28T16:37:50.536Z,101188.53
2019-05-28T16:40:20.254Z,101201.14
2019-05-28T16:42:49.369Z,101206.45
2019-05-28T16:45:20.815Z,101208.81
2019-05-28T16:47:50.027Z,101202.83
2019-05-28T16:50:20.051Z,101210.25
2019-05-28T16:52:49.316Z,101210.43
2019-05-28T16:55:19.323Z,101208.50
2019-05-28T16:57:48.514Z,101207.83
2019-05-28T17:00:18.927Z,101208.91
2019-05-28T17:02:48.086Z,101218.36
2019-05-28T17:05:17.542Z,101225.59
2019-05-28T17:07:46.805Z,101244.98
2019-05-28T17:10:31.485Z,101236.13
2019-05-28T17:12:47.320Z,101249.22
2019-05-28T17:15:17.260Z,101236.70
2019-05-28T17:17:48.353Z,101259.05
2019-05-28T17:20:18.962Z,101265.03
2019-05-28T17:22:48.151Z,101255.58
2019-05-28T17:25:18.283Z,101262.69
2019-05-28T17:27:47.474Z,101257.13
2019-05-28T17:30:22.781Z,101258.75
2019-05-28T17:32:48.625Z,101266.94
2019-05-28T17:35:18.900Z,101273.69
2019-05-28T17:37:48.084Z,101278.72
2019-05-28T17:40:21.798Z,101273.13
2019-05-28T17:42:48.210Z,101281.69
2019-05-28T17:45:18.743Z,101289.09
2019-05-28T17:47:47.937Z,101294.31
2019-05-28T17:50:17.406Z,101296.81
2019-05-28T17:52:50.816Z,101309.05
2019-05-28T17:55:17.571Z,101308.17
2019-05-28T17:57:46.747Z,101312.57
2019-05-28T18:00:18.008Z,101308.73
2019-05-28T18:02:48.598Z,101317.68
2019-05-28T18:05:18.387Z,101321.42
2019-05-28T18:07:47.570Z,101323.92
2019-05-28T18:10:18.273Z,101324.13
2019-05-28T18:12:47.451Z,101333.86
2019-05-28T18:15:20.006Z,101328.95
2019-05-28T18:17:49.194Z,101338.00
2019-05-28T18:20:18.539Z,101344.14
2019-05-28T18:22:47.725Z,101346.38
2019-05-28T18:25:20.327Z,101351.37
2019-05-28T18:27:49.714Z,101355.33
2019-05-28T18:30:19.086Z,101359.17
2019-05-28T18:32:48.279Z,101356.97
2019-05-28T18:35:17.535Z,101368.20
2019-05-28T18:37:46.701Z,101367.17
2019-05-28T18:40:22.485Z,101378.02
2019-05-28T18:42:58.539Z,101373.57
2019-05-28T18:45:34.860Z,101380.55
2019-05-28T18:48:04.040Z,101385.25
2019-05-28T18:50:33.219Z,101388.12
2019-05-28T18:53:06.037Z,101393.06
2019-05-28T18:55:35.212Z,101395.77
2019-05-28T18:58:04.590Z,101393.80
2019-05-28T19:00:33.943Z,101403.84
2019-05-28T19:03:03.290Z,101412.31
2019-05-28T19:05:33.564Z,101410.19
2019-05-28T19:08:02.888Z,101414.62
2019-05-28T19:10:32.188Z,101409.85
2019-05-28T19:13:06.171Z,101412.72
2019-05-28T19:15:35.275Z,101416.59
2019-05-28T19:18:04.585Z,101429.53
2019-05-28T19:20:33.762Z,101421.53
2019-05-28T19:23:02.950Z,101421.48
2019-05-28T19:25:33.099Z,101425.31
2019-05-28T19:28:02.334Z,101427.36
2019-05-28T19:30:35.164Z,101430.55
2019-05-28T19:33:05.833Z,101437.39
2019-05-28T19:35:35.078Z,101444.20
2019-05-28T19:38:06.300Z,101442.78
2019-05-28T19:40:38.382Z,101452.28
2019-05-28T19:43:07.539Z,101464.89
2019-05-28T19:45:37.373Z,101468.09
2019-05-28T19:48:07.307Z,101477.31
2019-05-28T19:50:37.719Z,101482.41
2019-05-28T19:53:06.993Z,101485.48
2019-05-28T19:55:36.221Z,101488.17
2019-05-28T19:58:06.387Z,101490.80
2019-05-28T20:00:35.708Z,101499.22
2019-05-28T20:03:04.971Z,101502.77
2019-05-28T20:05:34.149Z,101506.25
2019-05-28T20:08:03.384Z,101507.86
2019-05-28T20:10:32.657Z,101507.78
2019-05-28T20:13:01.851Z,101519.52
2019-05-28T20:15:31.143Z,101523.62
2019-05-28T20:18:00.388Z,101519.52
2019-05-28T20:20:29.618Z,101516.56
2019-05-28T20:22:58.791Z,101533.52
2019-05-28T20:25:27.996Z,101533.59
2019-05-28T20:27:57.197Z,101537.00
2019-05-28T20:30:26.422Z,101539.20
2019-05-28T20:32:55.707Z,101538.34
2019-05-28T20:35:24.979Z,101538.98
2019-05-28T20:37:54.144Z,101541.91
2019-05-28T20:40:23.483Z,101544.75
2019-05-28T20:42:52.667Z,101549.04
2019-05-28T20:45:21.995Z,101558.61
2019-05-28T20:47:51.322Z,101556.31
2019-05-28T20:50:20.444Z,101560.09
2019-05-28T20:52:49.651Z,101555.61
2019-05-28T20:55:19.169Z,101559.64
2019-05-28T20:57:49.166Z,101565.97
2019-05-28T21:00:18.995Z,101567.72
2019-05-28T21:02:48.189Z,101568.24
2019-05-28T21:05:18.858Z,101565.27
2019-05-28T21:07:50.091Z,101575.15
2019-05-28T21:10:19.424Z,101572.36
2019-05-28T21:12:50.693Z,101570.55
2019-05-28T21:15:20.048Z,101580.67
2019-05-28T21:17:51.128Z,101579.33
2019-05-28T21:20:20.610Z,101572.03
2019-05-28T21:22:51.856Z,101585.09
2019-05-28T21:25:21.003Z,101590.64
2019-05-28T21:27:50.175Z,101602.61
2019-05-28T21:30:19.705Z,101600.55
2019-05-28T21:32:48.910Z,101600.66
2019-05-28T21:35:18.099Z,101599.89
2019-05-28T21:37:47.189Z,101603.59
2019-05-28T21:40:16.639Z,101607.45
2019-05-28T21:42:58.560Z,101607.56
2019-05-28T21:45:17.052Z,101612.31
2019-05-28T21:47:46.246Z,101614.59
2019-05-28T21:50:15.554Z,101612.63
2019-05-28T21:52:44.802Z,101618.91
2019-05-28T21:55:14.541Z,101622.42
2019-05-28T21:57:43.704Z,101617.77
2019-05-28T22:00:19.261Z,101618.62
2019-05-28T22:02:48.432Z,101618.66
2019-05-28T22:05:17.675Z,101623.37
2019-05-28T22:07:46.895Z,101630.09
2019-05-28T22:10:16.217Z,101625.13
2019-05-28T22:12:45.432Z,101621.64
2019-05-28T22:15:16.277Z,101620.02
2019-05-28T22:17:45.456Z,101626.72
2019-05-28T22:20:14.810Z,101636.00
2019-05-28T22:22:43.981Z,101633.45
2019-05-28T22:25:13.240Z,101633.99
2019-05-28T22:27:42.424Z,101639.26
2019-05-28T22:30:11.964Z,101642.25
2019-05-28T22:32:41.153Z,101650.03
2019-05-28T22:35:10.782Z,101650.19
2019-05-28T22:37:40.032Z,101653.87
2019-05-28T22:40:10.388Z,101653.45
2019-05-28T22:42:39.595Z,101655.69
2019-05-28T22:45:09.108Z,101651.05
2019-05-28T22:47:38.288Z,101656.56
2019-05-28T22:50:22.128Z,101661.99
2019-05-28T22:52:41.738Z,101656.66
2019-05-28T22:55:11.148Z,101658.93
2019-05-28T22:57:40.395Z,101656.95
2019-05-28T23:00:10.492Z,101661.30
2019-05-28T23:02:39.669Z,101662.84
2019-05-28T23:05:09.340Z,101672.72
2019-05-28T23:07:38.551Z,101675.34
2019-05-28T23:10:08.380Z,101678.70
2019-05-28T23:12:39.070Z,101677.10
2019-05-28T23:15:10.493Z,101681.95
2019-05-28T23:17:39.743Z,101682.56
2019-05-28T23:20:11.252Z,101677.09
2019-05-28T23:22:40.606Z,101686.25
2019-05-28T23:25:11.700Z,101688.24
2019-05-28T23:27:40.986Z,101685.66
2019-05-28T23:30:23.316Z,101681.28
2019-05-28T23:32:43.103Z,101679.52
2019-05-28T23:35:12.792Z,101687.05
2019-05-28T23:37:42.005Z,101690.14
2019-05-28T23:40:11.544Z,101696.90
2019-05-28T23:42:41.669Z,101697.26
2019-05-28T23:45:11.857Z,101696.30
2019-05-28T23:47:41.041Z,101704.52
2019-05-28T23:50:15.826Z,101704.22
2019-05-28T23:52:41.771Z,101704.22
2019-05-28T23:55:11.799Z,101708.66
2019-05-28T23:57:41.109Z,101715.89
